sensor_id;sensor_type;location;lat;lon;timestamp;P1;durP1;ratioP1;P2;durP2;ratioP2
583;SDS011;27024;54.068;12.116;2024-03-08T00:02:36;13.00;;;5.82;;
583;SDS011;27024;54.068;12.116;2024-03-08T00:05:07;13.27;;;5.05;;
583;SDS011;27024;54.068;12.116;2024-03-08T00:07:35;14.82;;;6.20;;
583;SDS011;27024;54.068;12.116;2024-03-08T00:10:03;12.05;;;5.65;;
583;SDS011;27024;54.068;12.116;2024-03-08T00:12:31;14.82;;;5.57;;
583;SDS011;27024;54.068;12.116;2024-03-08T00:14:59;13.00;;;5.28;;
583;SDS011;27024;54.068;12.116;2024-03-08T00:17:26;13.43;;;5.75;;
583;SDS011;27024;54.068;12.116;2024-03-08T00:19:54;12.63;;;6.15;;
583;SDS011;27024;54.068;12.116;2024-03-08T00:22:21;15.80;;;6.63;;
583;SDS011;27024;54.068;12.116;2024-03-08T00:24:48;18.65;;;7.18;;
583;SDS011;27024;54.068;12.116;2024-03-08T00:27:18;14.90;;;6.55;;
583;SDS011;27024;54.068;12.116;2024-03-08T00:29:47;13.85;;;6.05;;
583;SDS011;27024;54.068;12.116;2024-03-08T00:32:15;12.65;;;5.32;;
583;SDS011;27024;54.068;12.116;2024-03-08T00:34:43;11.48;;;5.35;;
583;SDS011;27024;54.068;12.116;2024-03-08T00:37:10;12.85;;;5.32;;
583;SDS011;27024;54.068;12.116;2024-03-08T00:39:37;11.50;;;5.25;;
583;SDS011;27024;54.068;12.116;2024-03-08T00:42:04;12.35;;;5.53;;
583;SDS011;27024;54.068;12.116;2024-03-08T00:44:31;10.98;;;4.82;;
583;SDS011;27024;54.068;12.116;2024-03-08T00:46:58;12.45;;;5.18;;
583;SDS011;27024;54.068;12.116;2024-03-08T00:49:25;12.30;;;5.32;;
583;SDS011;27024;54.068;12.116;2024-03-08T00:51:52;14.68;;;5.38;;
583;SDS011;27024;54.068;12.116;2024-03-08T00:54:19;14.90;;;5.20;;
583;SDS011;27024;54.068;12.116;2024-03-08T00:56:47;12.23;;;5.28;;
583;SDS011;27024;54.068;12.116;2024-03-08T00:59:14;12.75;;;5.22;;
583;SDS011;27024;54.068;12.116;2024-03-08T01:01:41;13.75;;;5.88;;
583;SDS011;27024;54.068;12.116;2024-03-08T01:04:07;14.02;;;5.80;;
583;SDS011;27024;54.068;12.116;2024-03-08T01:06:34;14.40;;;5.25;;
583;SDS011;27024;54.068;12.116;2024-03-08T01:09:01;11.73;;;5.20;;
583;SDS011;27024;54.068;12.116;2024-03-08T01:11:29;11.23;;;5.25;;
583;SDS011;27024;54.068;12.116;2024-03-08T01:13:56;13.48;;;5.22;;
583;SDS011;27024;54.068;12.116;2024-03-08T01:16:23;11.90;;;5.88;;
583;SDS011;27024;54.068;12.116;2024-03-08T01:18:50;13.73;;;5.82;;
583;SDS011;27024;54.068;12.116;2024-03-08T01:21:17;12.68;;;5.95;;
583;SDS011;27024;54.068;12.116;2024-03-08T01:23:44;8.80;;;4.40;;
583;SDS011;27024;54.068;12.116;2024-03-08T01:26:11;12.65;;;5.35;;
583;SDS011;27024;54.068;12.116;2024-03-08T01:28:38;10.75;;;5.15;;
583;SDS011;27024;54.068;12.116;2024-03-08T01:31:05;10.93;;;5.18;;
583;SDS011;27024;54.068;12.116;2024-03-08T01:33:33;14.82;;;5.35;;
583;SDS011;27024;54.068;12.116;2024-03-08T01:36:00;13.10;;;5.90;;
583;SDS011;27024;54.068;12.116;2024-03-08T01:38:27;13.57;;;5.85;;
583;SDS011;27024;54.068;12.116;2024-03-08T01:40:54;13.57;;;5.60;;
583;SDS011;27024;54.068;12.116;2024-03-08T01:43:21;10.98;;;4.85;;
583;SDS011;27024;54.068;12.116;2024-03-08T01:45:51;13.73;;;5.43;;
583;SDS011;27024;54.068;12.116;2024-03-08T01:48:19;11.75;;;5.68;;
583;SDS011;27024;54.068;12.116;2024-03-08T01:50:50;13.52;;;5.18;;
583;SDS011;27024;54.068;12.116;2024-03-08T01:53:19;12.98;;;5.40;;
583;SDS011;27024;54.068;12.116;2024-03-08T01:55:47;13.95;;;5.75;;
583;SDS011;27024;54.068;12.116;2024-03-08T01:58:15;14.45;;;5.40;;
583;SDS011;27024;54.068;12.116;2024-03-08T02:00:46;11.27;;;5.65;;
583;SDS011;27024;54.068;12.116;2024-03-08T02:03:16;11.00;;;5.38;;
583;SDS011;27024;54.068;12.116;2024-03-08T02:05:43;11.27;;;4.65;;
583;SDS011;27024;54.068;12.116;2024-03-08T02:08:11;11.82;;;4.82;;
583;SDS011;27024;54.068;12.116;2024-03-08T02:10:41;12.00;;;4.93;;
583;SDS011;27024;54.068;12.116;2024-03-08T02:13:11;12.40;;;4.97;;
583;SDS011;27024;54.068;12.116;2024-03-08T02:15:51;13.63;;;4.80;;
583;SDS011;27024;54.068;12.116;2024-03-08T02:18:18;9.25;;;4.90;;
583;SDS011;27024;54.068;12.116;2024-03-08T02:20:47;11.23;;;4.78;;
583;SDS011;27024;54.068;12.116;2024-03-08T02:23:15;13.48;;;5.35;;
583;SDS011;27024;54.068;12.116;2024-03-08T02:25:42;11.80;;;4.97;;
583;SDS011;27024;54.068;12.116;2024-03-08T02:28:10;11.15;;;5.30;;
583;SDS011;27024;54.068;12.116;2024-03-08T02:30:38;14.95;;;5.47;;
583;SDS011;27024;54.068;12.116;2024-03-08T02:33:05;13.65;;;4.97;;
583;SDS011;27024;54.068;12.116;2024-03-08T02:35:33;11.98;;;4.97;;
583;SDS011;27024;54.068;12.116;2024-03-08T02:38:00;12.35;;;4.93;;
583;SDS011;27024;54.068;12.116;2024-03-08T02:40:27;13.00;;;5.63;;
583;SDS011;27024;54.068;12.116;2024-03-08T02:42:54;13.30;;;5.35;;
583;SDS011;27024;54.068;12.116;2024-03-08T02:45:21;15.13;;;5.65;;
583;SDS011;27024;54.068;12.116;2024-03-08T02:47:48;13.70;;;5.78;;
583;SDS011;27024;54.068;12.116;2024-03-08T02:50:17;15.52;;;5.93;;
583;SDS011;27024;54.068;12.116;2024-03-08T02:52:44;13.63;;;5.47;;
583;SDS011;27024;54.068;12.116;2024-03-08T02:55:13;13.55;;;6.05;;
583;SDS011;27024;54.068;12.116;2024-03-08T02:57:43;17.25;;;5.95;;
583;SDS011;27024;54.068;12.116;2024-03-08T03:00:13;33.50;;;6.03;;
583;SDS011;27024;54.068;12.116;2024-03-08T03:02:42;41.25;;;6.18;;
583;SDS011;27024;54.068;12.116;2024-03-08T03:05:09;79.18;;;7.28;;
583;SDS011;27024;54.068;12.116;2024-03-08T03:07:38;17.20;;;5.53;;
583;SDS011;27024;54.068;12.116;2024-03-08T03:10:05;35.00;;;5.97;;
583;SDS011;27024;54.068;12.116;2024-03-08T03:12:33;30.02;;;6.30;;
583;SDS011;27024;54.068;12.116;2024-03-08T03:15:00;26.05;;;6.28;;
583;SDS011;27024;54.068;12.116;2024-03-08T03:17:28;43.33;;;6.93;;
583;SDS011;27024;54.068;12.116;2024-03-08T03:19:55;22.77;;;6.90;;
583;SDS011;27024;54.068;12.116;2024-03-08T03:22:22;32.55;;;7.30;;
583;SDS011;27024;54.068;12.116;2024-03-08T03:24:49;25.63;;;6.47;;
583;SDS011;27024;54.068;12.116;2024-03-08T03:27:18;33.78;;;6.85;;
583;SDS011;27024;54.068;12.116;2024-03-08T03:29:46;25.05;;;6.60;;
583;SDS011;27024;54.068;12.116;2024-03-08T03:32:13;24.25;;;6.75;;
583;SDS011;27024;54.068;12.116;2024-03-08T03:34:40;23.42;;;6.60;;
583;SDS011;27024;54.068;12.116;2024-03-08T03:37:08;27.27;;;7.53;;
583;SDS011;27024;54.068;12.116;2024-03-08T03:39:39;34.38;;;6.57;;
583;SDS011;27024;54.068;12.116;2024-03-08T03:42:15;37.72;;;7.00;;
583;SDS011;27024;54.068;12.116;2024-03-08T03:44:46;18.75;;;6.72;;
583;SDS011;27024;54.068;12.116;2024-03-08T03:47:14;15.55;;;6.88;;
583;SDS011;27024;54.068;12.116;2024-03-08T03:49:41;33.60;;;7.72;;
583;SDS011;27024;54.068;12.116;2024-03-08T03:52:09;27.02;;;7.75;;
583;SDS011;27024;54.068;12.116;2024-03-08T03:54:37;23.60;;;7.68;;
583;SDS011;27024;54.068;12.116;2024-03-08T03:57:04;29.17;;;7.68;;
583;SDS011;27024;54.068;12.116;2024-03-08T03:59:31;31.60;;;7.53;;
583;SDS011;27024;54.068;12.116;2024-03-08T04:01:58;33.00;;;7.82;;
583;SDS011;27024;54.068;12.116;2024-03-08T04:04:25;37.85;;;8.23;;
583;SDS011;27024;54.068;12.116;2024-03-08T04:06:52;29.45;;;7.07;;
583;SDS011;27024;54.068;12.116;2024-03-08T04:09:19;29.75;;;8.32;;
583;SDS011;27024;54.068;12.116;2024-03-08T04:11:49;34.85;;;8.00;;
583;SDS011;27024;54.068;12.116;2024-03-08T04:14:19;23.58;;;7.65;;
583;SDS011;27024;54.068;12.116;2024-03-08T04:16:46;28.73;;;7.40;;
583;SDS011;27024;54.068;12.116;2024-03-08T04:19:15;33.97;;;8.40;;
583;SDS011;27024;54.068;12.116;2024-03-08T04:21:42;34.03;;;8.48;;
583;SDS011;27024;54.068;12.116;2024-03-08T04:24:09;30.10;;;8.45;;
583;SDS011;27024;54.068;12.116;2024-03-08T04:26:37;28.85;;;8.52;;
583;SDS011;27024;54.068;12.116;2024-03-08T04:29:04;23.08;;;8.13;;
583;SDS011;27024;54.068;12.116;2024-03-08T04:31:31;37.55;;;8.05;;
583;SDS011;27024;54.068;12.116;2024-03-08T04:33:58;25.65;;;8.02;;
583;SDS011;27024;54.068;12.116;2024-03-08T04:36:25;29.13;;;9.57;;
583;SDS011;27024;54.068;12.116;2024-03-08T04:38:52;28.88;;;8.98;;
583;SDS011;27024;54.068;12.116;2024-03-08T04:41:19;28.95;;;8.82;;
583;SDS011;27024;54.068;12.116;2024-03-08T04:43:46;25.15;;;9.05;;
583;SDS011;27024;54.068;12.116;2024-03-08T04:46:13;29.17;;;9.45;;
583;SDS011;27024;54.068;12.116;2024-03-08T04:48:40;31.67;;;9.20;;
583;SDS011;27024;54.068;12.116;2024-03-08T04:51:09;28.85;;;8.98;;
583;SDS011;27024;54.068;12.116;2024-03-08T04:53:36;34.03;;;9.93;;
583;SDS011;27024;54.068;12.116;2024-03-08T04:56:04;37.42;;;9.30;;
583;SDS011;27024;54.068;12.116;2024-03-08T04:58:37;23.40;;;9.18;;
583;SDS011;27024;54.068;12.116;2024-03-08T05:01:04;24.83;;;9.18;;
583;SDS011;27024;54.068;12.116;2024-03-08T05:03:31;34.33;;;9.73;;
583;SDS011;27024;54.068;12.116;2024-03-08T05:05:58;31.23;;;9.35;;
583;SDS011;27024;54.068;12.116;2024-03-08T05:08:25;31.25;;;8.75;;
583;SDS011;27024;54.068;12.116;2024-03-08T05:10:52;44.83;;;10.32;;
583;SDS011;27024;54.068;12.116;2024-03-08T05:13:19;31.45;;;8.68;;
583;SDS011;27024;54.068;12.116;2024-03-08T05:15:49;25.55;;;9.95;;
583;SDS011;27024;54.068;12.116;2024-03-08T05:18:19;35.97;;;9.32;;
583;SDS011;27024;54.068;12.116;2024-03-08T05:20:46;27.05;;;9.68;;
583;SDS011;27024;54.068;12.116;2024-03-08T05:23:13;26.98;;;10.18;;
583;SDS011;27024;54.068;12.116;2024-03-08T05:25:40;29.50;;;9.98;;
583;SDS011;27024;54.068;12.116;2024-03-08T05:28:08;26.58;;;9.80;;
583;SDS011;27024;54.068;12.116;2024-03-08T05:30:35;48.80;;;10.00;;
583;SDS011;27024;54.068;12.116;2024-03-08T05:33:04;28.92;;;9.40;;
583;SDS011;27024;54.068;12.116;2024-03-08T05:35:31;27.10;;;10.15;;
583;SDS011;27024;54.068;12.116;2024-03-08T05:37:59;24.27;;;9.60;;
583;SDS011;27024;54.068;12.116;2024-03-08T05:40:26;25.55;;;9.48;;
583;SDS011;27024;54.068;12.116;2024-03-08T05:42:53;30.48;;;10.00;;
583;SDS011;27024;54.068;12.116;2024-03-08T05:45:20;28.98;;;9.90;;
583;SDS011;27024;54.068;12.116;2024-03-08T05:47:47;34.20;;;10.98;;
583;SDS011;27024;54.068;12.116;2024-03-08T05:50:14;27.98;;;10.60;;
583;SDS011;27024;54.068;12.116;2024-03-08T05:52:42;33.70;;;9.77;;
583;SDS011;27024;54.068;12.116;2024-03-08T05:55:09;27.15;;;10.98;;
583;SDS011;27024;54.068;12.116;2024-03-08T05:57:37;29.55;;;10.90;;
583;SDS011;27024;54.068;12.116;2024-03-08T06:00:06;24.52;;;9.60;;
583;SDS011;27024;54.068;12.116;2024-03-08T06:02:33;26.02;;;10.52;;
583;SDS011;27024;54.068;12.116;2024-03-08T06:05:00;31.58;;;10.32;;
583;SDS011;27024;54.068;12.116;2024-03-08T06:07:28;42.05;;;10.45;;
583;SDS011;27024;54.068;12.116;2024-03-08T06:09:56;22.35;;;9.93;;
583;SDS011;27024;54.068;12.116;2024-03-08T06:12:24;34.17;;;9.93;;
583;SDS011;27024;54.068;12.116;2024-03-08T06:14:55;28.08;;;9.75;;
583;SDS011;27024;54.068;12.116;2024-03-08T06:17:22;37.50;;;10.85;;
583;SDS011;27024;54.068;12.116;2024-03-08T06:19:52;29.65;;;10.07;;
583;SDS011;27024;54.068;12.116;2024-03-08T06:22:20;32.55;;;9.90;;
583;SDS011;27024;54.068;12.116;2024-03-08T06:24:47;30.02;;;10.95;;
583;SDS011;27024;54.068;12.116;2024-03-08T06:27:14;30.45;;;11.48;;
583;SDS011;27024;54.068;12.116;2024-03-08T06:29:41;33.85;;;10.48;;
583;SDS011;27024;54.068;12.116;2024-03-08T06:32:08;30.48;;;10.40;;
583;SDS011;27024;54.068;12.116;2024-03-08T06:34:35;36.25;;;11.25;;
583;SDS011;27024;54.068;12.116;2024-03-08T06:37:02;44.30;;;11.18;;
583;SDS011;27024;54.068;12.116;2024-03-08T06:39:29;30.92;;;9.88;;
583;SDS011;27024;54.068;12.116;2024-03-08T06:41:58;30.42;;;9.98;;
583;SDS011;27024;54.068;12.116;2024-03-08T06:44:25;26.05;;;10.65;;
583;SDS011;27024;54.068;12.116;2024-03-08T06:46:52;32.58;;;11.25;;
583;SDS011;27024;54.068;12.116;2024-03-08T06:49:21;39.17;;;9.70;;
583;SDS011;27024;54.068;12.116;2024-03-08T06:51:48;32.83;;;11.23;;
583;SDS011;27024;54.068;12.116;2024-03-08T06:54:15;27.00;;;10.88;;
583;SDS011;27024;54.068;12.116;2024-03-08T06:56:42;32.50;;;11.07;;
583;SDS011;27024;54.068;12.116;2024-03-08T06:59:09;34.17;;;11.73;;
583;SDS011;27024;54.068;12.116;2024-03-08T07:01:39;32.95;;;10.95;;
583;SDS011;27024;54.068;12.116;2024-03-08T07:04:06;28.23;;;10.35;;
583;SDS011;27024;54.068;12.116;2024-03-08T07:06:33;35.42;;;11.02;;
583;SDS011;27024;54.068;12.116;2024-03-08T07:09:00;35.08;;;12.20;;
583;SDS011;27024;54.068;12.116;2024-03-08T07:11:27;34.95;;;11.45;;
583;SDS011;27024;54.068;12.116;2024-03-08T07:13:55;40.67;;;11.65;;
583;SDS011;27024;54.068;12.116;2024-03-08T07:16:22;29.27;;;11.40;;
583;SDS011;27024;54.068;12.116;2024-03-08T07:18:49;31.85;;;11.25;;
583;SDS011;27024;54.068;12.116;2024-03-08T07:21:19;36.55;;;11.95;;
583;SDS011;27024;54.068;12.116;2024-03-08T07:23:46;41.15;;;11.95;;
583;SDS011;27024;54.068;12.116;2024-03-08T07:26:20;37.17;;;12.20;;
583;SDS011;27024;54.068;12.116;2024-03-08T07:28:47;29.85;;;11.07;;
583;SDS011;27024;54.068;12.116;2024-03-08T07:31:14;32.92;;;11.32;;
583;SDS011;27024;54.068;12.116;2024-03-08T07:33:41;35.50;;;12.38;;
583;SDS011;27024;54.068;12.116;2024-03-08T07:36:08;41.28;;;12.27;;
583;SDS011;27024;54.068;12.116;2024-03-08T07:38:36;28.23;;;10.90;;
583;SDS011;27024;54.068;12.116;2024-03-08T07:41:03;34.78;;;12.93;;
583;SDS011;27024;54.068;12.116;2024-03-08T07:43:31;34.80;;;12.07;;
583;SDS011;27024;54.068;12.116;2024-03-08T07:45:59;33.15;;;11.23;;
583;SDS011;27024;54.068;12.116;2024-03-08T07:48:26;31.60;;;11.05;;
583;SDS011;27024;54.068;12.116;2024-03-08T07:50:54;32.78;;;12.00;;
583;SDS011;27024;54.068;12.116;2024-03-08T07:53:37;30.25;;;10.65;;
583;SDS011;27024;54.068;12.116;2024-03-08T07:56:05;35.95;;;12.05;;
583;SDS011;27024;54.068;12.116;2024-03-08T07:58:32;33.63;;;13.30;;
583;SDS011;27024;54.068;12.116;2024-03-08T08:01:01;32.38;;;12.45;;
583;SDS011;27024;54.068;12.116;2024-03-08T08:03:28;31.00;;;11.23;;
583;SDS011;27024;54.068;12.116;2024-03-08T08:05:55;36.17;;;12.65;;
583;SDS011;27024;54.068;12.116;2024-03-08T08:08:22;37.95;;;12.88;;
583;SDS011;27024;54.068;12.116;2024-03-08T08:10:49;40.55;;;13.43;;
583;SDS011;27024;54.068;12.116;2024-03-08T08:13:16;51.38;;;12.90;;
583;SDS011;27024;54.068;12.116;2024-03-08T08:15:44;37.53;;;12.93;;
583;SDS011;27024;54.068;12.116;2024-03-08T08:18:12;38.03;;;12.75;;
583;SDS011;27024;54.068;12.116;2024-03-08T08:20:40;35.72;;;13.55;;
583;SDS011;27024;54.068;12.116;2024-03-08T08:23:07;42.08;;;14.27;;
583;SDS011;27024;54.068;12.116;2024-03-08T08:25:35;34.60;;;12.73;;
583;SDS011;27024;54.068;12.116;2024-03-08T08:28:02;37.80;;;13.73;;
583;SDS011;27024;54.068;12.116;2024-03-08T08:30:31;38.45;;;14.63;;
583;SDS011;27024;54.068;12.116;2024-03-08T08:32:59;37.60;;;13.75;;
583;SDS011;27024;54.068;12.116;2024-03-08T08:35:27;42.90;;;13.80;;
583;SDS011;27024;54.068;12.116;2024-03-08T08:37:55;38.22;;;14.20;;
583;SDS011;27024;54.068;12.116;2024-03-08T08:40:23;36.97;;;13.30;;
583;SDS011;27024;54.068;12.116;2024-03-08T08:42:53;34.67;;;13.82;;
583;SDS011;27024;54.068;12.116;2024-03-08T08:45:20;37.63;;;13.73;;
583;SDS011;27024;54.068;12.116;2024-03-08T08:47:52;37.95;;;14.23;;
583;SDS011;27024;54.068;12.116;2024-03-08T08:50:22;41.65;;;15.45;;
583;SDS011;27024;54.068;12.116;2024-03-08T08:52:51;35.72;;;14.77;;
583;SDS011;27024;54.068;12.116;2024-03-08T08:55:18;39.80;;;15.23;;
583;SDS011;27024;54.068;12.116;2024-03-08T08:57:48;40.40;;;15.07;;
583;SDS011;27024;54.068;12.116;2024-03-08T09:00:15;37.95;;;14.57;;
583;SDS011;27024;54.068;12.116;2024-03-08T09:02:52;36.45;;;15.77;;
583;SDS011;27024;54.068;12.116;2024-03-08T09:05:21;40.33;;;15.77;;
583;SDS011;27024;54.068;12.116;2024-03-08T09:07:51;36.90;;;14.60;;
583;SDS011;27024;54.068;12.116;2024-03-08T09:10:19;39.70;;;15.60;;
583;SDS011;27024;54.068;12.116;2024-03-08T09:12:56;38.35;;;15.38;;
583;SDS011;27024;54.068;12.116;2024-03-08T09:15:23;40.13;;;14.75;;
583;SDS011;27024;54.068;12.116;2024-03-08T09:17:51;37.80;;;14.55;;
583;SDS011;27024;54.068;12.116;2024-03-08T09:20:17;37.90;;;14.68;;
583;SDS011;27024;54.068;12.116;2024-03-08T09:22:45;39.70;;;15.48;;
583;SDS011;27024;54.068;12.116;2024-03-08T09:25:15;36.28;;;15.52;;
583;SDS011;27024;54.068;12.116;2024-03-08T09:27:42;38.97;;;15.23;;
583;SDS011;27024;54.068;12.116;2024-03-08T09:30:10;38.60;;;14.57;;
583;SDS011;27024;54.068;12.116;2024-03-08T09:32:40;39.42;;;16.33;;
583;SDS011;27024;54.068;12.116;2024-03-08T09:35:08;39.42;;;15.52;;
583;SDS011;27024;54.068;12.116;2024-03-08T09:37:35;35.67;;;16.25;;
583;SDS011;27024;54.068;12.116;2024-03-08T09:40:02;37.63;;;16.35;;
583;SDS011;27024;54.068;12.116;2024-03-08T09:42:36;44.40;;;17.42;;
583;SDS011;27024;54.068;12.116;2024-03-08T09:45:08;37.83;;;15.10;;
583;SDS011;27024;54.068;12.116;2024-03-08T09:47:42;40.88;;;16.45;;
583;SDS011;27024;54.068;12.116;2024-03-08T09:50:11;41.75;;;16.80;;
583;SDS011;27024;54.068;12.116;2024-03-08T09:52:39;41.28;;;17.35;;
583;SDS011;27024;54.068;12.116;2024-03-08T09:55:07;41.58;;;16.75;;
583;SDS011;27024;54.068;12.116;2024-03-08T09:57:38;43.70;;;17.58;;
583;SDS011;27024;54.068;12.116;2024-03-08T10:00:06;40.78;;;16.48;;
583;SDS011;27024;54.068;12.116;2024-03-08T10:02:54;40.75;;;17.13;;
583;SDS011;27024;54.068;12.116;2024-03-08T10:05:21;41.17;;;16.75;;
583;SDS011;27024;54.068;12.116;2024-03-08T10:07:49;39.38;;;15.90;;
583;SDS011;27024;54.068;12.116;2024-03-08T10:10:17;43.97;;;18.20;;
583;SDS011;27024;54.068;12.116;2024-03-08T10:12:44;43.30;;;17.15;;
583;SDS011;27024;54.068;12.116;2024-03-08T10:15:12;42.53;;;16.65;;
583;SDS011;27024;54.068;12.116;2024-03-08T10:17:39;41.10;;;17.65;;
583;SDS011;27024;54.068;12.116;2024-03-08T10:20:16;42.72;;;17.25;;
583;SDS011;27024;54.068;12.116;2024-03-08T10:22:44;42.10;;;18.13;;
583;SDS011;27024;54.068;12.116;2024-03-08T10:25:28;42.63;;;17.63;;
583;SDS011;27024;54.068;12.116;2024-03-08T10:27:57;40.45;;;16.90;;
583;SDS011;27024;54.068;12.116;2024-03-08T10:30:24;42.40;;;17.98;;
583;SDS011;27024;54.068;12.116;2024-03-08T10:32:51;41.50;;;18.13;;
583;SDS011;27024;54.068;12.116;2024-03-08T10:35:18;37.97;;;17.92;;
583;SDS011;27024;54.068;12.116;2024-03-08T10:37:45;40.88;;;18.63;;
583;SDS011;27024;54.068;12.116;2024-03-08T10:40:24;37.80;;;17.25;;
583;SDS011;27024;54.068;12.116;2024-03-08T10:42:53;36.95;;;17.30;;
583;SDS011;27024;54.068;12.116;2024-03-08T10:48:08;37.83;;;17.65;;
583;SDS011;27024;54.068;12.116;2024-03-08T10:51:05;38.88;;;17.38;;
583;SDS011;27024;54.068;12.116;2024-03-08T10:53:34;38.13;;;17.05;;
583;SDS011;27024;54.068;12.116;2024-03-08T10:56:04;36.80;;;17.58;;
583;SDS011;27024;54.068;12.116;2024-03-08T10:58:31;33.22;;;15.98;;
583;SDS011;27024;54.068;12.116;2024-03-08T11:00:59;34.17;;;16.83;;
583;SDS011;27024;54.068;12.116;2024-03-08T11:03:43;33.22;;;16.83;;
583;SDS011;27024;54.068;12.116;2024-03-08T11:06:18;31.30;;;16.35;;
583;SDS011;27024;54.068;12.116;2024-03-08T11:08:50;32.38;;;16.45;;
583;SDS011;27024;54.068;12.116;2024-03-08T11:11:30;30.67;;;14.68;;
583;SDS011;27024;54.068;12.116;2024-03-08T11:14:01;29.35;;;15.20;;
583;SDS011;27024;54.068;12.116;2024-03-08T11:19:00;27.25;;;15.55;;
583;SDS011;27024;54.068;12.116;2024-03-08T11:21:33;28.13;;;17.10;;
583;SDS011;27024;54.068;12.116;2024-03-08T11:24:01;26.45;;;16.63;;
583;SDS011;27024;54.068;12.116;2024-03-08T11:26:29;26.52;;;15.85;;
583;SDS011;27024;54.068;12.116;2024-03-08T11:29:40;27.65;;;16.25;;
583;SDS011;27024;54.068;12.116;2024-03-08T11:34:42;23.90;;;14.55;;
583;SDS011;27024;54.068;12.116;2024-03-08T11:37:12;23.95;;;16.15;;
583;SDS011;27024;54.068;12.116;2024-03-08T11:39:48;26.58;;;15.65;;
583;SDS011;27024;54.068;12.116;2024-03-08T11:42:21;28.23;;;16.33;;
583;SDS011;27024;54.068;12.116;2024-03-08T11:44:50;23.80;;;15.98;;
583;SDS011;27024;54.068;12.116;2024-03-08T11:47:17;24.38;;;15.52;;
583;SDS011;27024;54.068;12.116;2024-03-08T11:49:45;24.75;;;15.52;;
583;SDS011;27024;54.068;12.116;2024-03-08T11:52:15;24.27;;;16.15;;
583;SDS011;27024;54.068;12.116;2024-03-08T11:54:53;25.80;;;16.13;;
583;SDS011;27024;54.068;12.116;2024-03-08T11:57:25;22.50;;;14.10;;
583;SDS011;27024;54.068;12.116;2024-03-08T11:59:52;23.20;;;14.88;;
583;SDS011;27024;54.068;12.116;2024-03-08T12:02:23;24.00;;;15.30;;
583;SDS011;27024;54.068;12.116;2024-03-08T12:04:57;24.13;;;14.25;;
583;SDS011;27024;54.068;12.116;2024-03-08T12:07:30;21.67;;;14.55;;
583;SDS011;27024;54.068;12.116;2024-03-08T12:12:48;19.08;;;12.80;;
583;SDS011;27024;54.068;12.116;2024-03-08T12:15:18;19.75;;;13.18;;
583;SDS011;27024;54.068;12.116;2024-03-08T12:17:47;20.50;;;12.57;;
583;SDS011;27024;54.068;12.116;2024-03-08T12:20:18;21.48;;;12.77;;
583;SDS011;27024;54.068;12.116;2024-03-08T12:22:48;21.88;;;13.45;;
583;SDS011;27024;54.068;12.116;2024-03-08T12:25:19;18.95;;;12.55;;
583;SDS011;27024;54.068;12.116;2024-03-08T12:27:47;19.67;;;12.50;;
583;SDS011;27024;54.068;12.116;2024-03-08T12:30:26;19.45;;;11.27;;
583;SDS011;27024;54.068;12.116;2024-03-08T12:33:00;19.58;;;11.32;;
583;SDS011;27024;54.068;12.116;2024-03-08T12:35:28;17.85;;;10.45;;
583;SDS011;27024;54.068;12.116;2024-03-08T12:37:56;17.67;;;9.73;;
583;SDS011;27024;54.068;12.116;2024-03-08T12:40:25;18.45;;;10.13;;
583;SDS011;27024;54.068;12.116;2024-03-08T12:42:58;16.55;;;9.35;;
583;SDS011;27024;54.068;12.116;2024-03-08T12:45:27;17.88;;;10.82;;
583;SDS011;27024;54.068;12.116;2024-03-08T12:47:54;17.92;;;9.45;;
583;SDS011;27024;54.068;12.116;2024-03-08T12:50:22;16.23;;;9.73;;
583;SDS011;27024;54.068;12.116;2024-03-08T12:52:51;15.88;;;9.40;;
583;SDS011;27024;54.068;12.116;2024-03-08T12:55:22;16.30;;;9.52;;
583;SDS011;27024;54.068;12.116;2024-03-08T12:57:49;16.52;;;9.45;;
583;SDS011;27024;54.068;12.116;2024-03-08T13:00:16;17.52;;;9.60;;
583;SDS011;27024;54.068;12.116;2024-03-08T13:02:46;18.85;;;10.15;;
583;SDS011;27024;54.068;12.116;2024-03-08T13:05:13;18.38;;;10.27;;
583;SDS011;27024;54.068;12.116;2024-03-08T13:07:41;18.88;;;10.57;;
583;SDS011;27024;54.068;12.116;2024-03-08T13:10:13;15.73;;;8.35;;
583;SDS011;27024;54.068;12.116;2024-03-08T13:12:42;18.58;;;9.93;;
583;SDS011;27024;54.068;12.116;2024-03-08T13:15:09;16.17;;;9.18;;
583;SDS011;27024;54.068;12.116;2024-03-08T13:17:47;19.60;;;9.77;;
583;SDS011;27024;54.068;12.116;2024-03-08T13:20:15;17.27;;;9.65;;
583;SDS011;27024;54.068;12.116;2024-03-08T13:22:56;18.63;;;10.50;;
583;SDS011;27024;54.068;12.116;2024-03-08T13:25:23;16.98;;;9.30;;
583;SDS011;27024;54.068;12.116;2024-03-08T13:27:51;19.08;;;9.23;;
583;SDS011;27024;54.068;12.116;2024-03-08T13:32:53;16.90;;;9.13;;
583;SDS011;27024;54.068;12.116;2024-03-08T13:35:21;24.65;;;10.52;;
583;SDS011;27024;54.068;12.116;2024-03-08T13:37:51;19.20;;;10.07;;
583;SDS011;27024;54.068;12.116;2024-03-08T13:40:18;19.42;;;9.45;;
583;SDS011;27024;54.068;12.116;2024-03-08T13:42:47;19.10;;;9.70;;
583;SDS011;27024;54.068;12.116;2024-03-08T13:45:16;16.88;;;9.57;;
583;SDS011;27024;54.068;12.116;2024-03-08T13:47:50;19.10;;;10.00;;
583;SDS011;27024;54.068;12.116;2024-03-08T13:50:21;20.25;;;9.88;;
583;SDS011;27024;54.068;12.116;2024-03-08T13:52:49;18.33;;;10.98;;
583;SDS011;27024;54.068;12.116;2024-03-08T13:55:22;16.48;;;9.18;;
583;SDS011;27024;54.068;12.116;2024-03-08T13:57:50;17.33;;;9.45;;
583;SDS011;27024;54.068;12.116;2024-03-08T14:00:20;20.35;;;10.13;;
583;SDS011;27024;54.068;12.116;2024-03-08T14:02:49;18.10;;;9.95;;
583;SDS011;27024;54.068;12.116;2024-03-08T14:05:16;16.50;;;9.77;;
583;SDS011;27024;54.068;12.116;2024-03-08T14:07:46;19.92;;;11.27;;
583;SDS011;27024;54.068;12.116;2024-03-08T14:10:16;17.85;;;10.73;;
583;SDS011;27024;54.068;12.116;2024-03-08T14:12:47;18.65;;;10.25;;
583;SDS011;27024;54.068;12.116;2024-03-08T14:15:15;19.85;;;10.55;;
583;SDS011;27024;54.068;12.116;2024-03-08T14:17:43;19.70;;;11.43;;
583;SDS011;27024;54.068;12.116;2024-03-08T14:20:13;19.98;;;11.45;;
583;SDS011;27024;54.068;12.116;2024-03-08T14:22:40;21.50;;;11.10;;
583;SDS011;27024;54.068;12.116;2024-03-08T14:25:07;16.50;;;9.55;;
583;SDS011;27024;54.068;12.116;2024-03-08T14:27:44;19.75;;;11.43;;
583;SDS011;27024;54.068;12.116;2024-03-08T14:30:12;18.48;;;10.95;;
583;SDS011;27024;54.068;12.116;2024-03-08T14:32:40;17.63;;;10.52;;
583;SDS011;27024;54.068;12.116;2024-03-08T14:35:08;17.25;;;10.20;;
583;SDS011;27024;54.068;12.116;2024-03-08T14:37:38;17.58;;;9.55;;
583;SDS011;27024;54.068;12.116;2024-03-08T14:40:05;17.23;;;9.30;;
583;SDS011;27024;54.068;12.116;2024-03-08T14:42:33;15.90;;;9.50;;
583;SDS011;27024;54.068;12.116;2024-03-08T14:45:00;19.35;;;10.23;;
583;SDS011;27024;54.068;12.116;2024-03-08T14:47:27;17.42;;;8.88;;
583;SDS011;27024;54.068;12.116;2024-03-08T14:49:55;14.48;;;8.07;;
583;SDS011;27024;54.068;12.116;2024-03-08T14:52:22;13.77;;;8.13;;
583;SDS011;27024;54.068;12.116;2024-03-08T14:54:56;14.80;;;8.73;;
583;SDS011;27024;54.068;12.116;2024-03-08T14:57:23;15.48;;;8.05;;
583;SDS011;27024;54.068;12.116;2024-03-08T14:59:50;13.45;;;8.18;;
583;SDS011;27024;54.068;12.116;2024-03-08T15:02:18;14.13;;;8.45;;
583;SDS011;27024;54.068;12.116;2024-03-08T15:04:48;13.60;;;8.32;;